TimeCST,TemperatureF,Dew PointF,Humidity,Sea Level PressureIn,VisibilityMPH,Wind Direction,Wind SpeedMPH,Gust SpeedMPH,PrecipitationIn,Events,Conditions,WindDirDegrees,DateUTC
12:15 AM,39.2,32.0,75,30.26,10.0,ESE,10.4,-,N/A,,Mostly Cloudy,110,2013-03-08 06:15:00
12:35 AM,39.2,32.0,75,30.26,10.0,ESE,9.2,-,N/A,,Partly Cloudy,110,2013-03-08 06:35:00
12:55 AM,37.4,32.0,81,30.26,10.0,ESE,8.1,-,N/A,,Clear,110,2013-03-08 06:55:00
1:15 AM,37.4,32.0,81,30.27,10.0,ESE,10.4,-,N/A,,Clear,120,2013-03-08 07:15:00
1:35 AM,37.4,32.0,81,30.28,10.0,ESE,6.9,-,N/A,,Clear,120,2013-03-08 07:35:00
1:55 AM,37.4,32.0,81,30.27,10.0,ESE,10.4,-,N/A,,Clear,120,2013-03-08 07:55:00
2:15 AM,37.4,32.0,81,30.27,9.0,ESE,8.1,-,N/A,,Clear,120,2013-03-08 08:15:00
2:35 AM,35.6,32.0,87,30.27,10.0,ESE,6.9,-,N/A,,Partly Cloudy,110,2013-03-08 08:35:00
2:55 AM,35.6,32.0,87,30.27,8.0,ESE,6.9,-,N/A,,Scattered Clouds,110,2013-03-08 08:55:00
3:15 AM,35.6,32.0,87,30.27,8.0,ESE,8.1,-,N/A,,Mostly Cloudy,120,2013-03-08 09:15:00
3:35 AM,35.6,32.0,87,30.27,8.0,ESE,6.9,-,N/A,,Overcast,110,2013-03-08 09:35:00
3:55 AM,35.6,32.0,87,30.26,8.0,ESE,9.2,-,N/A,,Mostly Cloudy,110,2013-03-08 09:55:00
4:15 AM,35.6,32.0,87,30.27,8.0,ESE,8.1,-,N/A,,Mostly Cloudy,120,2013-03-08 10:15:00
4:35 AM,35.6,30.2,81,30.27,7.0,ESE,8.1,-,N/A,,Mostly Cloudy,120,2013-03-08 10:35:00
4:55 AM,35.6,30.2,81,30.27,8.0,SE,8.1,-,N/A,,Partly Cloudy,130,2013-03-08 10:55:00
5:15 AM,35.6,30.2,81,30.29,7.0,SE,6.9,-,N/A,,Clear,130,2013-03-08 11:15:00
6:50 AM,33.8,30.2,87,30.28,5.0,ESE,11.5,-,N/A,,Scattered Clouds,110,2013-03-08 12:50:00
7:46 AM,35.6,30.2,81,30.30,5.0,ESE,11.5,-,N/A,,Haze,120,2013-03-08 13:46:00
8:55 AM,41.0,32.0,70,30.30,8.0,SE,11.5,17.3,N/A,,Scattered Clouds,130,2013-03-08 14:55:00
9:47 AM,46.4,32.0,57,30.30,8.0,SE,11.5,-,N/A,,Mostly Cloudy,140,2013-03-08 15:47:00
10:45 AM,48.2,32.0,54,30.28,10.0,SE,11.5,18.4,N/A,,Overcast,130,2013-03-08 16:45:00
11:45 AM,51.8,32.0,47,30.27,10.0,SE,12.7,19.6,N/A,,Overcast,140,2013-03-08 17:45:00
12:46 PM,55.4,32.0,41,30.25,10.0,SE,11.5,-,N/A,,Overcast,130,2013-03-08 18:46:00
1:54 PM,59.0,32.0,36,30.20,10.0,ESE,12.7,18.4,N/A,,Overcast,110,2013-03-08 19:54:00
2:45 PM,57.2,32.0,38,30.17,10.0,East,13.8,17.3,N/A,,Overcast,100,2013-03-08 20:45:00
3:45 PM,55.4,32.0,41,30.15,10.0,ESE,13.8,19.6,N/A,,Overcast,110,2013-03-08 21:45:00
4:45 PM,53.6,32.0,44,30.14,10.0,East,13.8,17.3,N/A,,Overcast,100,2013-03-08 22:45:00
5:51 PM,51.8,32.0,47,30.15,10.0,ESE,13.8,-,N/A,,Overcast,110,2013-03-08 23:51:00
6:47 PM,50.0,32.0,50,30.15,10.0,ESE,15.0,-,N/A,,Overcast,110,2013-03-09 00:47:00
7:50 PM,50.0,32.0,50,30.14,10.0,ESE,16.1,-,N/A,,Overcast,120,2013-03-09 01:50:00
7:55 PM,50.0,32.0,50,30.15,10.0,SE,10.4,-,N/A,,Overcast,130,2013-03-09 01:55:00
8:15 PM,50.0,32.0,50,30.16,10.0,ESE,8.1,-,N/A,,Overcast,120,2013-03-09 02:15:00
8:35 PM,50.0,32.0,50,30.15,10.0,ESE,11.5,-,N/A,,Overcast,110,2013-03-09 02:35:00
8:46 PM,50.0,32.0,50,30.15,10.0,ESE,12.7,-,N/A,,Overcast,120,2013-03-09 02:46:00
8:55 PM,50.0,32.0,50,30.15,10.0,ESE,10.4,-,N/A,,Overcast,120,2013-03-09 02:55:00
9:15 PM,50.0,32.0,50,30.15,10.0,SE,10.4,-,N/A,,Overcast,130,2013-03-09 03:15:00
9:35 PM,50.0,32.0,50,30.15,10.0,ESE,10.4,17.3,N/A,,Overcast,120,2013-03-09 03:35:00
9:55 PM,50.0,32.0,50,30.15,10.0,SE,12.7,-,N/A,,Overcast,130,2013-03-09 03:55:00
10:15 PM,48.2,33.8,58,30.14,10.0,ESE,12.7,-,N/A,,Overcast,120,2013-03-09 04:15:00
10:35 PM,48.2,35.6,62,30.13,8.0,SE,10.4,-,N/A,Rain,Light Rain,130,2013-03-09 04:35:00
10:55 PM,46.4,35.6,66,30.13,9.0,ESE,9.2,-,N/A,Rain,Light Rain,120,2013-03-09 04:55:00
11:15 PM,46.4,35.6,66,30.12,10.0,SE,9.2,-,N/A,,Overcast,130,2013-03-09 05:15:00
11:35 PM,46.4,35.6,66,30.12,10.0,SE,8.1,-,N/A,,Overcast,130,2013-03-09 05:35:00
11:55 PM,46.4,35.6,66,30.10,10.0,SE,9.2,-,N/A,,Overcast,130,2013-03-09 05:55:00